Arbor, Missouri
Current Conditions -  °F | °C
As of 12:20 PM on Sunday 25 Jan 2015 (Local Time) from KCGI Reporting Station
Light Rain Light Rain  
Wind Chill: 37°   Ceiling: 3800
Heat Index: 43°   Visibility: 5mi
Dew Point: 42°   Wind: 12mph
Humidity: 97%   Direction: 240°WSW
Pressure: 29.61"   Gusts: NA
Location:  37.1651°N, 89.623°W
Report Text: KCGI 251820Z 24010KT 5SM -RA BR FEW006 SCT009 OVC038 06/06 A2961 RMK AO2 P0003 T00610056
Loading
Personal Weather Stations






























Interactive Weather Map New forecast layout! Learn more

10-Day Weather Forecast

Advertisements
Track Severe Weather on mobile